createdAt,value
2023-01-28T00:01:33.506Z,100501.25
2023-01-28T00:24:40.778Z,100514.50
2023-01-28T00:27:09.499Z,100514.50
2023-01-28T00:29:37.931Z,100502.22
2023-01-28T00:32:07.177Z,100511.22
2023-01-28T00:34:35.461Z,100517.84
2023-01-28T00:37:05.455Z,100518.81
2023-01-28T00:39:33.419Z,100507.75
2023-01-28T01:02:42.162Z,100524.56
2023-01-28T01:05:11.202Z,100524.56
2023-01-28T01:07:42.464Z,100529.50
2023-01-28T01:10:16.241Z,100529.03
2023-01-28T01:12:46.903Z,100523.03
2023-01-28T01:15:16.645Z,100528.25
2023-01-28T01:17:47.861Z,100527.63
2023-01-28T01:38:34.219Z,100516.62
2023-01-28T01:41:03.296Z,100516.62
2023-01-28T01:44:07.133Z,100534.03
2023-01-28T01:46:40.103Z,100535.94
2023-01-28T01:49:23.791Z,100541.38
2023-01-28T02:10:10.061Z,100548.31
2023-01-28T02:12:48.163Z,100548.31
2023-01-28T02:15:22.079Z,100539.69
2023-01-28T02:17:51.774Z,100510.47
2023-01-28T02:20:25.986Z,100537.09
2023-01-28T02:23:29.131Z,100547.75
2023-01-28T02:26:09.203Z,100508.31
2023-01-28T02:47:49.995Z,100519.97
2023-01-28T02:50:21.127Z,100519.97
2023-01-28T02:53:13.402Z,100529.16
2023-01-28T02:56:07.967Z,100523.34
2023-01-28T02:58:55.760Z,100510.59
2023-01-28T03:01:36.892Z,100524.41
2023-01-28T03:04:14.722Z,100525.63
2023-01-28T03:27:31.665Z,100526.38
2023-01-28T03:30:26.631Z,100526.38
2023-01-28T03:33:14.372Z,100537.25
2023-01-28T03:36:04.594Z,100533.94
2023-01-28T03:38:34.274Z,100540.59
2023-01-28T03:41:04.107Z,100535.47
2023-01-28T03:43:32.476Z,100546.13
2023-01-28T04:03:53.080Z,100548.44
2023-01-28T04:06:23.553Z,100548.44
2023-01-28T04:08:59.387Z,100553.72
2023-01-28T04:11:28.140Z,100562.63
2023-01-28T04:13:56.249Z,100563.69
2023-01-28T04:16:24.558Z,100565.47
2023-01-28T04:18:53.320Z,100564.38
2023-01-28T04:44:11.533Z,100574.75
2023-01-28T04:46:40.711Z,100574.75
2023-01-28T04:49:09.023Z,100578.75
2023-01-28T04:51:39.546Z,100561.91
2023-01-28T04:54:08.371Z,100536.44
2023-01-28T04:56:36.412Z,100582.19
2023-01-28T04:59:04.776Z,100581.47
2023-01-28T05:01:33.496Z,100592.84
2023-01-28T05:19:05.002Z,100596.87
2023-01-28T05:21:34.230Z,100596.87
2023-01-28T05:24:02.518Z,100605.66
2023-01-28T05:26:30.809Z,100592.72
2023-01-28T05:28:59.294Z,100592.38
2023-01-28T05:31:27.274Z,100599.72
2023-01-28T05:54:25.552Z,100615.53
2023-01-28T05:56:55.667Z,100615.53
2023-01-28T05:59:23.755Z,100616.44
2023-01-28T06:01:51.811Z,100631.72
2023-01-28T06:04:21.618Z,100640.63
2023-01-28T06:06:49.890Z,100626.28
2023-01-28T06:09:17.918Z,100631.00
2023-01-28T06:11:46.799Z,100637.88
2023-01-28T06:32:26.333Z,100652.25
2023-01-28T06:34:54.934Z,100661.16
2023-01-28T06:37:25.218Z,100663.03
2023-01-28T06:39:54.533Z,100644.19
2023-01-28T06:42:22.770Z,100668.13
2023-01-28T06:44:50.629Z,100655.94
2023-01-28T06:47:18.871Z,100669.78
2023-01-28T07:07:45.640Z,100682.34
2023-01-28T07:10:14.729Z,100682.34
2023-01-28T07:12:45.156Z,100668.94
2023-01-28T07:15:15.340Z,100687.44
2023-01-28T07:17:43.288Z,100690.78
2023-01-28T07:20:15.228Z,100695.03
2023-01-28T07:22:46.041Z,100694.34
2023-01-28T07:25:15.474Z,100694.91
2023-01-28T07:43:09.740Z,100710.12
2023-01-28T07:45:39.053Z,100710.12
2023-01-28T07:48:10.282Z,100719.22
2023-01-28T07:50:38.977Z,100721.16
2023-01-28T07:53:10.835Z,100723.53
2023-01-28T07:55:39.359Z,100719.84
2023-01-28T07:58:08.768Z,100723.28
2023-01-28T08:19:03.883Z,100732.56
2023-01-28T08:21:32.707Z,100732.56
2023-01-28T08:24:00.739Z,100727.44
2023-01-28T08:26:28.704Z,100687.59
2023-01-28T08:28:57.178Z,100726.72
2023-01-28T08:31:25.238Z,100732.75
2023-01-28T08:33:53.211Z,100739.41
2023-01-28T08:36:21.668Z,100741.72
2023-01-28T08:56:39.165Z,100758.16
2023-01-28T08:59:07.827Z,100758.16
2023-01-28T09:01:35.686Z,100759.97
2023-01-28T09:04:04.264Z,100753.41
2023-01-28T09:06:32.732Z,100749.69
2023-01-28T09:09:01.386Z,100753.72
2023-01-28T09:11:30.382Z,100750.94
2023-01-28T09:14:07.151Z,100760.25
2023-01-28T09:34:37.970Z,100769.09
2023-01-28T09:37:06.667Z,100769.09
2023-01-28T09:39:34.695Z,100774.78
2023-01-28T09:42:21.295Z,100772.87
2023-01-28T09:45:22.122Z,100769.81
2023-01-28T09:47:54.016Z,100767.25
2023-01-28T09:50:38.825Z,100775.19
2023-01-28T10:07:27.908Z,100756.47
2023-01-28T10:10:11.724Z,100756.47
2023-01-28T10:12:50.312Z,100777.62
2023-01-28T10:15:43.245Z,100767.78
2023-01-28T10:18:17.561Z,100771.78
2023-01-28T10:20:55.705Z,100773.47
2023-01-28T10:43:54.514Z,100759.34
2023-01-28T10:46:29.512Z,100759.34
2023-01-28T10:49:18.904Z,100771.00
2023-01-28T10:51:47.245Z,100775.78
2023-01-28T10:54:31.289Z,100756.75
2023-01-28T10:57:02.608Z,100772.56
2023-01-28T11:23:39.383Z,100764.53
2023-01-28T11:26:17.826Z,100764.53
2023-01-28T11:28:46.914Z,100761.53
2023-01-28T11:31:17.816Z,100762.19
2023-01-28T11:33:59.695Z,100770.28
2023-01-28T11:36:33.083Z,100766.78
2023-01-28T11:39:05.679Z,100762.00
2023-01-28T11:41:37.500Z,100758.25
2023-01-28T11:58:38.599Z,100744.41
2023-01-28T12:01:13.070Z,100744.41
2023-01-28T12:04:02.978Z,100749.69
2023-01-28T12:06:42.848Z,100746.53
2023-01-28T12:09:18.248Z,100750.56
2023-01-28T12:12:11.590Z,100750.41
2023-01-28T12:35:23.489Z,100747.88
2023-01-28T12:37:52.131Z,100747.88
2023-01-28T12:40:23.062Z,100751.25
2023-01-28T12:43:05.636Z,100754.56
2023-01-28T12:45:40.805Z,100748.25
2023-01-28T12:48:18.355Z,100748.63
2023-01-28T12:50:55.243Z,100729.66
2023-01-28T12:53:26.576Z,100745.53
2023-01-28T13:14:32.159Z,100770.59
2023-01-28T13:17:25.708Z,100770.59
2023-01-28T13:19:54.135Z,100779.81
2023-01-28T13:22:30.197Z,100775.06
2023-01-28T13:25:13.123Z,100776.41
2023-01-28T13:27:41.583Z,100774.03
2023-01-28T13:49:43.662Z,100789.78
2023-01-28T13:52:12.329Z,100789.78
2023-01-28T13:55:00.823Z,100794.09
2023-01-28T13:57:41.208Z,100807.59
2023-01-28T14:00:13.375Z,100794.88
2023-01-28T14:03:03.596Z,100804.38
2023-01-28T14:05:37.686Z,100806.09
2023-01-28T14:08:17.259Z,100811.38
2023-01-28T14:24:40.592Z,100820.09
2023-01-28T14:27:22.860Z,100820.09
2023-01-28T14:30:24.432Z,100833.63
2023-01-28T14:32:54.457Z,100827.94
2023-01-28T14:35:34.202Z,100825.94
2023-01-28T14:38:09.370Z,100818.41
2023-01-28T14:40:40.062Z,100826.91
2023-01-28T14:59:48.530Z,100848.38
2023-01-28T15:02:23.794Z,100848.38
2023-01-28T15:04:53.620Z,100862.47
2023-01-28T15:07:25.355Z,100856.03
2023-01-28T15:10:08.319Z,100858.53
2023-01-28T15:12:40.053Z,100842.62
2023-01-28T15:15:12.103Z,100864.50
2023-01-28T15:33:27.607Z,100879.34
2023-01-28T15:35:58.289Z,100879.34
2023-01-28T15:38:29.683Z,100885.66
2023-01-28T15:41:02.858Z,100874.63
2023-01-28T15:43:35.200Z,100886.50
2023-01-28T15:46:04.144Z,100891.50
2023-01-28T15:48:35.195Z,100891.34
2023-01-28T16:10:42.010Z,100906.84
2023-01-28T16:13:10.675Z,100906.84
2023-01-28T16:15:39.533Z,100922.03
2023-01-28T16:18:07.641Z,100916.06
2023-01-28T16:20:36.079Z,100924.28
2023-01-28T16:23:04.561Z,100910.16
2023-01-28T16:25:37.090Z,100926.44
2023-01-28T16:28:20.441Z,100917.06
2023-01-28T16:48:18.460Z,100943.50
2023-01-28T16:50:47.265Z,100943.50
2023-01-28T16:53:28.353Z,100951.59
2023-01-28T16:55:57.005Z,100923.06
2023-01-28T16:58:26.987Z,100946.03
2023-01-28T17:00:55.025Z,100953.25
2023-01-28T17:03:23.910Z,100947.31
2023-01-28T17:05:52.202Z,100957.53
2023-01-28T17:26:20.726Z,100968.72
2023-01-28T17:28:53.739Z,100968.72
2023-01-28T17:31:22.438Z,100972.47
2023-01-28T17:33:55.049Z,100978.31
2023-01-28T17:36:24.353Z,100976.16
2023-01-28T17:38:53.356Z,100970.44
2023-01-28T17:41:21.858Z,100983.28
2023-01-28T18:06:58.997Z,100992.03
2023-01-28T18:09:29.436Z,100992.03
2023-01-28T18:11:57.408Z,100991.81
2023-01-28T18:14:25.726Z,101009.38
2023-01-28T18:16:54.089Z,101020.78
2023-01-28T18:19:22.077Z,101020.91
2023-01-28T18:21:53.355Z,101018.88
2023-01-28T18:44:54.278Z,101028.50
2023-01-28T18:47:22.946Z,101028.50
2023-01-28T18:49:51.077Z,101039.50
2023-01-28T18:52:19.154Z,101037.44
2023-01-28T18:54:47.912Z,101045.91
2023-01-28T18:57:15.942Z,101041.53
2023-01-28T18:59:44.349Z,101045.84
2023-01-28T19:02:18.403Z,101047.34
2023-01-28T19:22:42.377Z,101061.03
2023-01-28T19:25:11.661Z,101061.03
2023-01-28T19:27:40.078Z,101062.50
2023-01-28T19:30:10.288Z,101072.38
2023-01-28T19:32:39.429Z,101064.00
2023-01-28T19:35:07.929Z,101070.84
2023-01-28T19:37:36.182Z,101066.69
2023-01-28T20:03:38.679Z,101078.00
2023-01-28T20:06:12.445Z,101078.00
2023-01-28T20:08:41.135Z,101093.56
2023-01-28T20:11:15.093Z,101090.41
2023-01-28T20:13:45.397Z,101089.00
2023-01-28T20:16:20.961Z,101099.88
2023-01-28T20:42:18.472Z,101116.31
2023-01-28T20:44:47.228Z,101116.31
2023-01-28T20:47:15.449Z,101114.87
2023-01-28T20:49:43.657Z,101101.31
2023-01-28T20:52:11.924Z,101127.06
2023-01-28T20:54:40.322Z,101119.13
2023-01-28T20:57:08.500Z,101122.75
2023-01-28T20:59:37.342Z,101121.00
2023-01-28T21:17:21.716Z,101133.88
2023-01-28T21:19:50.856Z,101076.81
2023-01-28T21:22:20.302Z,101106.25
2023-01-28T21:24:51.290Z,101125.66
2023-01-28T21:27:19.815Z,101143.97
2023-01-28T21:29:48.068Z,101143.66
2023-01-28T21:32:17.758Z,101150.88
2023-01-28T21:34:46.331Z,101152.78
2023-01-28T21:55:10.005Z,101156.63
2023-01-28T21:57:38.666Z,101156.63
2023-01-28T22:00:09.521Z,101175.44
2023-01-28T22:02:40.253Z,101164.16
2023-01-28T22:05:08.630Z,101161.72
2023-01-28T22:07:36.574Z,101169.69
2023-01-28T22:10:05.387Z,101165.41
2023-01-28T22:12:34.007Z,101156.13
2023-01-28T22:32:43.931Z,101153.34
2023-01-28T22:35:12.459Z,101153.34
2023-01-28T22:37:40.444Z,101154.44
2023-01-28T22:40:09.324Z,101165.53
2023-01-28T22:42:38.954Z,101167.59
2023-01-28T22:45:07.593Z,101160.69
2023-01-28T22:47:35.671Z,101169.91
2023-01-28T22:50:14.213Z,101169.91
2023-01-28T23:08:36.998Z,101158.50
2023-01-28T23:11:15.016Z,101158.50
2023-01-28T23:14:02.511Z,101169.37
2023-01-28T23:16:50.163Z,101178.06
2023-01-28T23:19:36.651Z,101171.34
2023-01-28T23:22:24.112Z,101175.31
2023-01-28T23:24:54.380Z,101177.84
2023-01-28T23:40:24.020Z,101187.34
2023-01-28T23:42:54.138Z,101187.34
2023-01-28T23:45:22.707Z,101181.91
2023-01-28T23:47:50.680Z,101196.09
2023-01-28T23:50:20.055Z,101193.25
2023-01-28T23:52:49.112Z,101194.62
2023-01-28T23:55:17.398Z,101194.22
2023-01-28T23:57:45.813Z,101200.38
